Time;durP1;ratioP1;P1;durP2;ratioP2;P2;SDS_P1;SDS_P2;PMS_P1;PMS_P2;Temp;Humidity;BMP_temperature;BMP_pressure;BME280_temperature;BME280_humidity;BME280_pressure;Samples;Min_cycle;Max_cycle;Signal;HPM_P1;HPM_P2
2021/12/14 00:01:04;;;;;;;4.82;3.42;;;18.70;99.90;;;;;;4195614;28;20272;-76
2021/12/14 00:03:08;;;;;;;3.53;3.03;;;18.70;99.90;;;;;;4195467;28;20644;-76
2021/12/14 00:05:11;;;;;;;4.35;3.22;;;18.60;99.90;;;;;;4195508;28;20215;-76
2021/12/14 00:07:16;;;;;;;3.80;3.20;;;18.70;99.90;;;;;;4194977;28;20288;-76
2021/12/14 00:09:25;;;;;;;3.78;3.30;;;18.70;99.90;;;;;;4193038;28;20233;-76
2021/12/14 00:11:53;;;;;;;4.13;3.22;;;18.60;99.90;;;;;;4193617;28;20264;-76
2021/12/14 00:14:10;;;;;;;4.18;3.47;;;18.70;99.90;;;;;;4190340;28;20352;-76
2021/12/14 00:16:14;;;;;;;3.90;3.03;;;18.70;99.90;;;;;;4194348;28;20211;-76
2021/12/14 00:18:16;;;;;;;3.28;2.97;;;18.70;99.90;;;;;;4195631;28;20219;-76
2021/12/14 00:20:22;;;;;;;4.45;3.15;;;18.60;99.90;;;;;;4195755;28;20226;-76
2021/12/14 00:22:33;;;;;;;3.25;2.85;;;18.60;99.90;;;;;;4195523;28;20675;-76
2021/12/14 00:24:35;;;;;;;5.63;3.20;;;18.60;99.90;;;;;;4193881;28;20224;-76
2021/12/14 00:26:42;;;;;;;4.05;3.10;;;18.60;99.90;;;;;;4195418;28;20239;-76
2021/12/14 00:28:48;;;;;;;4.47;3.58;;;18.60;99.90;;;;;;4195306;28;20272;-76
2021/12/14 00:30:58;;;;;;;4.18;3.50;;;18.60;99.90;;;;;;4189535;28;20239;-77
2021/12/14 00:33:00;;;;;;;3.15;2.80;;;18.50;99.90;;;;;;4192198;28;20218;-76
2021/12/14 00:35:11;;;;;;;3.17;2.88;;;18.60;99.90;;;;;;4195374;28;20269;-76
2021/12/14 00:37:16;;;;;;;3.70;3.13;;;18.50;99.90;;;;;;4195289;28;20226;-76
2021/12/14 00:39:19;;;;;;;3.38;3.03;;;18.60;99.90;;;;;;4195324;28;20211;-76
2021/12/14 00:41:25;;;;;;;3.42;3.13;;;18.60;99.90;;;;;;4193915;28;20332;-76
2021/12/14 00:43:29;;;;;;;4.47;3.08;;;18.60;99.90;;;;;;4193905;28;20236;-76
2021/12/14 00:45:34;;;;;;;2.97;2.75;;;18.60;99.90;;;;;;4192849;28;20837;-76
2021/12/14 00:47:37;;;;;;;3.60;3.10;;;18.60;99.90;;;;;;4195324;28;20284;-76
2021/12/14 00:49:40;;;;;;;3.55;2.90;;;18.50;99.90;;;;;;4195319;28;20260;-76
2021/12/14 00:51:43;;;;;;;4.05;3.15;;;18.60;99.90;;;;;;4195222;28;20215;-76
2021/12/14 00:53:45;;;;;;;4.32;3.10;;;18.60;99.90;;;;;;4195160;28;20214;-76
2021/12/14 00:55:50;;;;;;;3.22;2.92;;;18.60;99.90;;;;;;4194615;28;20214;-76
2021/12/14 00:57:53;;;;;;;3.35;3.05;;;18.60;99.90;;;;;;4194886;28;20215;-76
2021/12/14 00:59:57;;;;;;;3.80;3.20;;;18.50;99.90;;;;;;4194634;28;20960;-76
2021/12/14 01:02:06;;;;;;;3.00;2.60;;;18.50;99.90;;;;;;4195208;28;20284;-76
2021/12/14 01:04:13;;;;;;;3.55;2.95;;;18.50;99.90;;;;;;4193940;28;20222;-76
2021/12/14 01:06:18;;;;;;;3.65;3.10;;;18.50;99.90;;;;;;4194619;28;20223;-76
2021/12/14 01:08:24;;;;;;;3.20;2.90;;;18.50;99.90;;;;;;4193122;28;20243;-76
2021/12/14 01:10:31;;;;;;;2.92;2.63;;;18.50;99.90;;;;;;4194506;28;20218;-76
2021/12/14 01:12:41;;;;;;;2.65;2.45;;;18.50;99.90;;;;;;4195077;28;20227;-76
2021/12/14 01:14:48;;;;;;;3.00;2.70;;;18.50;99.90;;;;;;4194981;28;20268;-76
2021/12/14 01:17:07;;;;;;;3.75;3.15;;;18.50;99.90;;;;;;4192381;28;20227;-76
2021/12/14 01:19:17;;;;;;;3.17;2.67;;;18.40;99.90;;;;;;4194932;28;21044;-75
2021/12/14 01:21:40;;;;;;;3.33;2.50;;;18.50;99.90;;;;;;4194673;28;20222;-75
2021/12/14 01:23:45;;;;;;;3.13;2.83;;;18.50;99.90;;;;;;4195341;28;20237;-76
2021/12/14 01:25:50;;;;;;;3.10;2.60;;;18.50;99.90;;;;;;4195133;28;20286;-76
2021/12/14 01:27:57;;;;;;;3.33;2.53;;;18.50;99.90;;;;;;4190818;28;20243;-76
2021/12/14 01:30:04;;;;;;;3.10;2.80;;;18.50;99.90;;;;;;4192711;28;20661;-76
2021/12/14 01:32:10;;;;;;;3.42;2.83;;;18.40;99.90;;;;;;4194985;28;20240;-76
2021/12/14 01:34:21;;;;;;;3.53;3.00;;;18.50;99.90;;;;;;4192600;28;20269;-76
2021/12/14 01:36:27;;;;;;;2.97;2.75;;;18.40;99.90;;;;;;4194720;28;20272;-76
2021/12/14 01:38:44;;;;;;;2.95;2.53;;;18.40;99.90;;;;;;4194774;28;20605;-76
2021/12/14 01:40:56;;;;;;;3.42;3.10;;;18.40;99.90;;;;;;4192768;28;20211;-76
2021/12/14 01:42:59;;;;;;;2.90;2.58;;;18.30;99.90;;;;;;4193921;28;20223;-76
2021/12/14 01:45:07;;;;;;;3.00;2.67;;;18.30;99.90;;;;;;4192720;28;20262;-76
2021/12/14 01:47:13;;;;;;;3.35;2.50;;;18.30;99.90;;;;;;4194535;28;20214;-76
2021/12/14 01:49:18;;;;;;;5.45;2.90;;;18.40;99.90;;;;;;4191990;28;20212;-76
2021/12/14 01:51:20;;;;;;;3.45;2.75;;;18.40;99.90;;;;;;4195217;28;20289;-76
2021/12/14 01:53:23;;;;;;;5.20;2.85;;;18.40;99.90;;;;;;4194774;28;20269;-76
2021/12/14 01:55:28;;;;;;;3.42;2.55;;;18.40;99.90;;;;;;4194669;28;20211;-76
2021/12/14 01:57:32;;;;;;;2.80;2.50;;;18.40;99.90;;;;;;4194688;28;20223;-76
2021/12/14 01:59:38;;;;;;;3.40;2.47;;;18.40;99.90;;;;;;4194542;28;20632;-76
2021/12/14 02:01:53;;;;;;;3.63;2.40;;;18.40;99.90;;;;;;4194706;28;20293;-76
2021/12/14 02:04:00;;;;;;;3.22;2.78;;;18.40;99.90;;;;;;4194997;28;20623;-76
2021/12/14 02:06:03;;;;;;;2.50;2.30;;;18.40;99.90;;;;;;4194552;28;20292;-76
2021/12/14 02:08:16;;;;;;;3.05;2.75;;;18.40;99.90;;;;;;4193214;28;20286;-76
2021/12/14 02:10:24;;;;;;;3.10;2.70;;;18.40;99.90;;;;;;4194752;28;20219;-76
2021/12/14 02:12:29;;;;;;;3.78;2.65;;;18.40;99.90;;;;;;4194268;28;20283;-76
2021/12/14 02:14:32;;;;;;;3.50;2.80;;;18.30;99.90;;;;;;4194376;28;20276;-76
2021/12/14 02:16:35;;;;;;;3.00;2.70;;;18.30;99.90;;;;;;4197468;28;20231;-76
2021/12/14 02:18:38;;;;;;;2.90;2.60;;;18.30;99.90;;;;;;4197421;28;20219;-76
2021/12/14 02:20:48;;;;;;;2.83;2.30;;;18.40;99.90;;;;;;4197623;28;20215;-76
2021/12/14 02:22:51;;;;;;;3.00;2.65;;;18.40;99.90;;;;;;4197431;28;20729;-76
2021/12/14 02:24:53;;;;;;;2.70;2.38;;;18.40;99.90;;;;;;4195641;28;20218;-76
2021/12/14 02:26:57;;;;;;;2.47;2.13;;;18.30;99.90;;;;;;4197257;28;20569;-76
2021/12/14 02:29:01;;;;;;;3.20;2.90;;;18.30;99.90;;;;;;4196874;28;20736;-76
2021/12/14 02:31:06;;;;;;;2.75;2.50;;;18.40;99.90;;;;;;4196898;28;20289;-76
2021/12/14 02:33:14;;;;;;;3.15;2.50;;;18.30;99.90;;;;;;4197196;28;20223;-76
2021/12/14 02:35:22;;;;;;;2.83;2.50;;;18.30;99.90;;;;;;4196858;28;20264;-76
2021/12/14 02:37:40;;;;;;;2.92;2.45;;;18.40;99.90;;;;;;4196982;28;20206;-76
2021/12/14 02:40:01;;;;;;;6.30;2.70;;;18.30;99.90;;;;;;4197223;28;20231;-76
2021/12/14 02:42:06;;;;;;;3.30;2.60;;;18.30;99.90;;;;;;4194231;28;20227;-76
2021/12/14 02:44:09;;;;;;;2.95;2.30;;;18.40;99.90;;;;;;4197003;28;20245;-75
2021/12/14 02:46:15;;;;;;;2.53;2.28;;;18.30;99.90;;;;;;4195877;28;20215;-76
2021/12/14 02:48:19;;;;;;;3.17;2.58;;;18.40;99.90;;;;;;4195915;28;20235;-76
2021/12/14 02:50:24;;;;;;;2.63;2.20;;;18.30;99.90;;;;;;4197075;28;20223;-76
2021/12/14 02:52:34;;;;;;;2.72;2.35;;;18.30;99.90;;;;;;4197090;28;20272;-75
2021/12/14 02:54:41;;;;;;;3.55;2.70;;;18.30;99.90;;;;;;4196972;28;20659;-76
2021/12/14 02:56:46;;;;;;;2.53;2.28;;;18.30;99.90;;;;;;4192402;28;20227;-76
2021/12/14 02:58:51;;;;;;;3.10;2.35;;;18.30;99.90;;;;;;4195435;28;20215;-76
2021/12/14 03:00:55;;;;;;;2.97;2.53;;;18.20;99.90;;;;;;4196688;28;20272;-76
2021/12/14 03:02:58;;;;;;;3.10;2.72;;;18.30;99.90;;;;;;4196802;28;20219;-76
2021/12/14 03:05:06;;;;;;;2.50;2.30;;;18.30;99.90;;;;;;4196875;28;20219;-76
2021/12/14 03:07:09;;;;;;;3.05;2.47;;;18.30;99.90;;;;;;4196684;28;20260;-76
2021/12/14 03:09:31;;;;;;;2.95;2.10;;;18.20;99.90;;;;;;4196441;28;20625;-76
2021/12/14 03:11:34;;;;;;;2.60;2.40;;;18.30;99.90;;;;;;4197044;28;20249;-76
2021/12/14 03:13:39;;;;;;;2.90;2.30;;;18.20;99.90;;;;;;4196929;28;20980;-76
2021/12/14 03:15:48;;;;;;;3.08;2.70;;;18.20;99.90;;;;;;4192249;28;20268;-76
2021/12/14 03:17:53;;;;;;;2.55;2.35;;;18.20;99.90;;;;;;4192172;28;20264;-76
2021/12/14 03:19:58;;;;;;;2.90;2.60;;;18.20;99.90;;;;;;4194650;28;20214;-75
2021/12/14 03:22:01;;;;;;;2.97;2.50;;;18.20;99.90;;;;;;4196931;28;20905;-76
2021/12/14 03:24:08;;;;;;;2.58;2.38;;;18.20;99.90;;;;;;4196895;28;20223;-76
2021/12/14 03:26:14;;;;;;;2.70;2.25;;;18.20;99.90;;;;;;4195856;28;20269;-76
2021/12/14 03:28:18;;;;;;;3.13;2.55;;;18.20;99.90;;;;;;4196133;28;20239;-76
2021/12/14 03:30:30;;;;;;;2.50;2.17;;;18.20;99.90;;;;;;4195349;28;20285;-76
2021/12/14 03:32:35;;;;;;;2.40;2.20;;;18.20;99.90;;;;;;4195333;28;20745;-76
2021/12/14 03:34:40;;;;;;;2.63;2.20;;;18.20;99.90;;;;;;4196681;28;20227;-76
2021/12/14 03:36:48;;;;;;;2.20;2.00;;;18.20;99.90;;;;;;4196506;28;20265;-76
2021/12/14 03:38:55;;;;;;;3.28;2.22;;;18.20;99.90;;;;;;4196313;28;20670;-76
2021/12/14 03:41:01;;;;;;;2.78;2.30;;;18.10;99.90;;;;;;4195490;28;20219;-76
2021/12/14 03:43:06;;;;;;;2.92;2.17;;;18.20;99.90;;;;;;4196010;28;20223;-76
2021/12/14 03:45:11;;;;;;;2.28;2.08;;;18.20;99.90;;;;;;4196402;28;20616;-76
2021/12/14 03:47:17;;;;;;;2.80;2.35;;;18.20;99.90;;;;;;4196177;28;20285;-76
2021/12/14 03:49:23;;;;;;;2.38;2.10;;;18.10;99.90;;;;;;4194632;28;20242;-76
2021/12/14 03:51:27;;;;;;;2.28;2.08;;;18.20;99.90;;;;;;4196129;28;20223;-76
2021/12/14 03:53:29;;;;;;;2.45;2.25;;;18.20;99.90;;;;;;4196116;28;20227;-76
2021/12/14 03:55:34;;;;;;;3.67;2.45;;;18.10;99.90;;;;;;4196069;28;20211;-76
2021/12/14 03:57:37;;;;;;;3.40;2.03;;;18.10;99.90;;;;;;4195776;28;20223;-76
2021/12/14 03:59:42;;;;;;;2.33;2.10;;;18.10;99.90;;;;;;4195811;28;20745;-76
2021/12/14 04:01:47;;;;;;;2.70;2.35;;;18.10;99.90;;;;;;4195879;28;20736;-76
2021/12/14 04:03:54;;;;;;;3.28;2.10;;;18.10;99.90;;;;;;4195632;28;20227;-75
2021/12/14 04:05:59;;;;;;;3.17;2.03;;;18.10;99.90;;;;;;4194436;28;20304;-75
2021/12/14 04:08:01;;;;;;;3.53;2.50;;;18.10;99.90;;;;;;4195322;28;20269;-76
2021/12/14 04:10:05;;;;;;;3.42;2.28;;;18.10;99.90;;;;;;4195701;28;20703;-76
2021/12/14 04:12:13;;;;;;;2.00;1.80;;;18.10;99.90;;;;;;4195675;28;20659;-76
2021/12/14 04:14:17;;;;;;;2.20;2.00;;;18.10;99.90;;;;;;4195464;28;20218;-76
2021/12/14 04:16:24;;;;;;;2.65;2.20;;;18.10;99.90;;;;;;4196052;28;20672;-75
2021/12/14 04:18:27;;;;;;;2.88;1.90;;;18.10;99.90;;;;;;4195070;28;20246;-75
2021/12/14 04:20:34;;;;;;;2.67;2.30;;;18.00;99.90;;;;;;4194708;28;20227;-76
2021/12/14 04:22:36;;;;;;;2.72;2.25;;;18.10;99.90;;;;;;4192894;28;20215;-76
2021/12/14 04:24:40;;;;;;;2.20;2.00;;;18.10;99.90;;;;;;4195738;28;20268;-76
2021/12/14 04:26:44;;;;;;;2.88;2.50;;;18.00;99.90;;;;;;4195307;28;20215;-76
2021/12/14 04:28:56;;;;;;;2.20;2.00;;;18.00;99.90;;;;;;4195097;28;20251;-76
2021/12/14 04:30:58;;;;;;;2.47;2.28;;;18.10;99.90;;;;;;4192411;28;20874;-76
2021/12/14 04:33:06;;;;;;;2.80;2.05;;;18.10;99.90;;;;;;4195551;28;20268;-76
2021/12/14 04:35:09;;;;;;;2.70;2.30;;;18.00;99.90;;;;;;4195421;28;20218;-76
2021/12/14 04:37:14;;;;;;;2.42;2.22;;;18.00;99.90;;;;;;4195476;28;20660;-76
2021/12/14 04:39:36;;;;;;;2.47;2.28;;;18.00;99.90;;;;;;4193882;28;20748;-76
2021/12/14 04:53:42;;;;;;;2.30;2.10;;;18.00;99.90;;;;;;4195496;28;20793;-76
2021/12/14 04:55:47;;;;;;;2.88;2.40;;;18.00;99.90;;;;;;4193535;28;20218;-76
2021/12/14 04:57:49;;;;;;;2.42;1.98;;;18.00;99.90;;;;;;4192324;28;20735;-76
2021/12/14 04:59:54;;;;;;;2.08;1.98;;;17.90;99.90;;;;;;4194955;28;20675;-76
2021/12/14 05:02:00;;;;;;;2.50;2.00;;;18.00;99.90;;;;;;4195237;28;20222;-76
2021/12/14 05:04:07;;;;;;;2.40;2.20;;;18.00;99.90;;;;;;4191867;28;20237;-76
2021/12/14 05:06:14;;;;;;;2.55;2.20;;;18.00;99.90;;;;;;4192964;28;20272;-76
2021/12/14 05:10:43;;;;;;;3.22;2.30;;;18.00;99.90;;;;;;4194616;28;20215;-76
2021/12/14 05:12:47;;;;;;;2.47;2.10;;;18.00;99.90;;;;;;4195154;28;20276;-76
2021/12/14 05:14:51;;;;;;;2.75;2.20;;;17.90;99.90;;;;;;4192440;28;20223;-76
2021/12/14 05:16:55;;;;;;;2.22;2.03;;;17.90;99.90;;;;;;4194838;28;20215;-76
2021/12/14 05:19:01;;;;;;;2.42;2.10;;;17.90;99.90;;;;;;4194272;28;20211;-76
2021/12/14 05:21:04;;;;;;;2.30;2.10;;;17.90;99.90;;;;;;4195095;28;20214;-76
2021/12/14 05:23:07;;;;;;;2.00;1.83;;;18.00;99.90;;;;;;4194882;28;20955;-76
2021/12/14 05:25:14;;;;;;;2.20;2.00;;;17.90;99.90;;;;;;4195134;28;20215;-76
2021/12/14 05:27:19;;;;;;;2.20;2.00;;;17.90;99.90;;;;;;4195380;28;20280;-76
2021/12/14 05:29:23;;;;;;;2.53;2.33;;;18.00;99.90;;;;;;4194151;28;20232;-76
2021/12/14 05:31:26;;;;;;;2.33;2.00;;;17.90;99.90;;;;;;4191734;28;20243;-76
2021/12/14 05:33:31;;;;;;;2.45;2.05;;;17.90;99.90;;;;;;4194674;28;20215;-76
2021/12/14 05:35:36;;;;;;;2.15;1.95;;;17.90;99.90;;;;;;4194168;28;20214;-76
2021/12/14 05:37:45;;;;;;;2.30;2.10;;;17.90;99.90;;;;;;4194744;28;20256;-76
2021/12/14 05:39:54;;;;;;;2.20;2.00;;;17.90;99.90;;;;;;4194462;28;20207;-76
2021/12/14 05:44:23;;;;;;;2.72;2.10;;;17.90;99.90;;;;;;4194923;28;20603;-76
2021/12/14 05:46:25;;;;;;;2.90;2.08;;;17.90;99.90;;;;;;4194846;28;20223;-76
2021/12/14 05:48:32;;;;;;;2.25;2.05;;;17.90;99.90;;;;;;4193946;28;20218;-76
2021/12/14 05:50:38;;;;;;;2.28;2.08;;;17.90;99.90;;;;;;4196388;28;20921;-75
2021/12/14 05:52:42;;;;;;;2.25;2.05;;;17.90;99.90;;;;;;4197999;28;20215;-76
2021/12/14 05:54:44;;;;;;;2.70;2.20;;;17.80;99.90;;;;;;4197793;28;20280;-76
2021/12/14 05:56:47;;;;;;;2.38;1.98;;;17.80;99.90;;;;;;4197979;28;20241;-76
2021/12/14 05:58:53;;;;;;;2.33;2.10;;;17.90;99.90;;;;;;4197961;28;20280;-76
2021/12/14 06:00:59;;;;;;;2.00;1.85;;;17.90;99.90;;;;;;4196325;28;20218;-76
2021/12/14 06:03:01;;;;;;;2.55;2.15;;;17.90;99.90;;;;;;4197841;28;20218;-76
2021/12/14 06:05:04;;;;;;;2.28;2.00;;;17.90;99.90;;;;;;4196415;28;20276;-76
2021/12/14 06:07:08;;;;;;;2.80;2.20;;;17.90;99.90;;;;;;4197553;28;20223;-75
2021/12/14 06:09:15;;;;;;;2.50;2.30;;;18.00;99.90;;;;;;4197264;28;20612;-76
2021/12/14 06:11:22;;;;;;;2.65;1.80;;;18.00;99.90;;;;;;4197618;28;20292;-76
2021/12/14 06:13:36;;;;;;;2.97;1.95;;;17.90;99.90;;;;;;4197560;28;20219;-76
2021/12/14 06:15:38;;;;;;;2.72;1.83;;;18.00;99.90;;;;;;4197336;28;20272;-76
2021/12/14 06:17:42;;;;;;;1.95;1.80;;;18.00;99.90;;;;;;4196246;28;20211;-76
2021/12/14 06:19:50;;;;;;;2.30;2.10;;;18.10;99.90;;;;;;4197488;28;20241;-76
2021/12/14 06:21:55;;;;;;;2.10;1.90;;;18.10;99.90;;;;;;4196229;28;20214;-75
2021/12/14 06:24:04;;;;;;;1.98;1.77;;;18.10;99.90;;;;;;4197407;28;20284;-75
2021/12/14 06:26:08;;;;;;;2.92;2.17;;;18.10;99.90;;;;;;4196692;28;20226;-76
2021/12/14 06:28:10;;;;;;;2.25;2.05;;;18.10;99.90;;;;;;4194839;28;20261;-76
2021/12/14 06:30:15;;;;;;;2.03;1.80;;;18.10;99.90;;;;;;4196273;28;20227;-76
2021/12/14 06:32:20;;;;;;;3.03;2.50;;;18.10;99.90;;;;;;4195385;28;20272;-75
2021/12/14 06:34:25;;;;;;;2.90;2.00;;;18.10;99.90;;;;;;4194699;28;20625;-76
2021/12/14 06:37:17;;;;;;;2.45;1.92;;;18.10;99.90;;;;;;4197368;28;20219;-76
2021/12/14 06:39:20;;;;;;;2.30;2.05;;;18.10;99.90;;;;;;4195779;28;20218;-76
2021/12/14 06:41:24;;;;;;;2.75;2.10;;;18.10;99.90;;;;;;4197256;28;20648;-76
2021/12/14 06:43:30;;;;;;;2.60;2.10;;;18.10;99.90;;;;;;4197045;28;20227;-76
2021/12/14 06:45:35;;;;;;;2.30;2.08;;;18.10;99.90;;;;;;4197074;28;20662;-76
2021/12/14 06:47:38;;;;;;;2.22;2.03;;;18.10;99.90;;;;;;4196599;28;20268;-76
2021/12/14 06:49:40;;;;;;;3.88;2.03;;;18.20;99.90;;;;;;4195836;28;20223;-76
2021/12/14 06:51:46;;;;;;;2.88;2.22;;;18.10;99.90;;;;;;4193950;28;20664;-76
2021/12/14 06:53:53;;;;;;;2.30;1.80;;;18.10;99.90;;;;;;4191663;28;20269;-76
2021/12/14 06:55:58;;;;;;;2.05;1.85;;;18.20;99.90;;;;;;4194209;28;20223;-76
2021/12/14 06:58:16;;;;;;;2.47;2.17;;;18.20;99.90;;;;;;4195932;28;20280;-76
2021/12/14 07:00:19;;;;;;;2.03;1.83;;;18.20;99.90;;;;;;4194755;28;20709;-76
2021/12/14 07:02:22;;;;;;;2.42;2.22;;;18.20;99.90;;;;;;4195831;28;20215;-76
2021/12/14 07:04:27;;;;;;;3.38;2.22;;;18.20;99.90;;;;;;4194950;28;20671;-75
2021/12/14 07:06:33;;;;;;;2.33;2.10;;;18.20;99.90;;;;;;4196806;28;20672;-76
2021/12/14 07:08:36;;;;;;;2.78;2.30;;;18.20;99.90;;;;;;4196199;28;20219;-76
2021/12/14 07:10:41;;;;;;;2.90;2.35;;;18.20;99.90;;;;;;4196617;28;20239;-76
2021/12/14 07:12:44;;;;;;;2.72;2.30;;;18.20;99.90;;;;;;4196332;28;20660;-76
2021/12/14 07:15:05;;;;;;;3.17;2.30;;;18.20;99.90;;;;;;4196748;28;20222;-75
2021/12/14 07:17:13;;;;;;;2.30;2.10;;;18.20;99.90;;;;;;4196200;28;20732;-76
2021/12/14 07:19:15;;;;;;;2.53;2.10;;;18.20;99.90;;;;;;4196992;28;20799;-76
2021/12/14 07:21:35;;;;;;;2.72;2.13;;;18.20;99.90;;;;;;4195727;28;20222;-76
2021/12/14 07:23:38;;;;;;;2.20;2.00;;;18.20;99.90;;;;;;4196385;28;20222;-76
2021/12/14 07:25:41;;;;;;;2.38;2.13;;;18.30;99.90;;;;;;4196443;28;20219;-76
2021/12/14 07:27:45;;;;;;;3.90;2.20;;;18.30;99.90;;;;;;4194244;28;20304;-76
2021/12/14 07:29:49;;;;;;;2.03;1.83;;;18.30;99.90;;;;;;4195702;28;20223;-76
2021/12/14 07:31:52;;;;;;;2.83;2.28;;;18.30;99.90;;;;;;4196511;28;20235;-76
2021/12/14 07:33:57;;;;;;;2.75;2.47;;;18.30;99.90;;;;;;4196087;28;20741;-76
2021/12/14 07:36:01;;;;;;;3.03;2.45;;;18.30;99.90;;;;;;4196230;28;20288;-76
2021/12/14 07:38:19;;;;;;;2.67;2.30;;;18.20;99.90;;;;;;4196364;28;20269;-75
2021/12/14 07:40:24;;;;;;;3.00;2.45;;;18.30;99.90;;;;;;4196257;28;20648;-76
2021/12/14 07:42:26;;;;;;;2.60;2.17;;;18.30;99.90;;;;;;4196175;28;20292;-76
2021/12/14 07:44:32;;;;;;;2.58;2.10;;;18.30;99.90;;;;;;4196519;28;20276;-75
2021/12/14 07:46:39;;;;;;;2.47;2.17;;;18.30;99.90;;;;;;4196190;28;20222;-76
2021/12/14 07:48:47;;;;;;;3.17;2.50;;;18.30;99.90;;;;;;4196432;28;20281;-76
2021/12/14 07:50:53;;;;;;;3.67;2.47;;;18.30;99.90;;;;;;4195227;28;20242;-76
2021/12/14 07:52:56;;;;;;;2.83;2.08;;;18.40;99.90;;;;;;4195986;28;20227;-76
2021/12/14 07:55:01;;;;;;;2.70;2.40;;;18.30;99.90;;;;;;4196093;28;20636;-76
2021/12/14 07:57:07;;;;;;;3.28;2.60;;;18.40;99.90;;;;;;4196163;28;20269;-76
2021/12/14 07:59:19;;;;;;;3.35;2.40;;;18.40;99.90;;;;;;4195981;28;20668;-76
2021/12/14 08:01:22;;;;;;;2.60;2.17;;;18.30;99.90;;;;;;4193909;28;20215;-76
2021/12/14 08:03:29;;;;;;;2.65;2.40;;;18.40;99.90;;;;;;4194549;28;20268;-73
2021/12/14 08:05:36;;;;;;;5.32;2.80;;;18.40;99.90;;;;;;4196219;28;21004;-76
2021/12/14 08:07:41;;;;;;;3.80;2.95;;;18.40;99.90;;;;;;4192432;28;21718;-76
2021/12/14 08:09:48;;;;;;;6.72;3.00;;;18.30;99.90;;;;;;4183549;28;20211;-76
2021/12/14 08:11:50;;;;;;;5.38;3.28;;;18.30;99.90;;;;;;4189761;28;20288;-76
2021/12/14 08:13:53;;;;;;;6.40;3.35;;;18.20;99.90;;;;;;4191965;28;20558;-76
2021/12/14 08:15:58;;;;;;;2.92;2.38;;;18.20;99.90;;;;;;4192041;28;20266;-75
2021/12/14 08:18:13;;;;;;;6.18;3.13;;;18.30;99.90;;;;;;4192717;28;20283;-75
2021/12/14 08:20:22;;;;;;;6.85;3.33;;;18.30;99.90;;;;;;4191077;28;20208;-76
2021/12/14 08:22:31;;;;;;;3.53;2.88;;;18.50;99.90;;;;;;4188198;28;20261;-76
2021/12/14 08:24:35;;;;;;;4.20;3.28;;;18.50;99.90;;;;;;4189422;28;20219;-76
2021/12/14 08:26:41;;;;;;;3.63;2.67;;;18.70;99.90;;;;;;4187893;28;20219;-77
2021/12/14 08:28:47;;;;;;;3.88;2.88;;;18.70;99.90;;;;;;4191791;28;20269;-74
2021/12/14 08:30:57;;;;;;;6.07;3.30;;;18.90;99.90;;;;;;4189405;28;20296;-74
2021/12/14 08:33:00;;;;;;;4.47;3.30;;;19.00;99.90;;;;;;4190943;28;20218;-77
2021/12/14 08:35:15;;;;;;;6.00;2.63;;;18.90;99.90;;;;;;4185093;28;20215;-75
2021/12/14 08:37:20;;;;;;;3.72;2.15;;;19.20;99.90;;;;;;4184595;28;20276;-76
2021/12/14 08:39:29;;;;;;;4.63;2.70;;;19.50;99.90;;;;;;4188682;28;20300;-77
2021/12/14 08:41:31;;;;;;;3.28;2.55;;;19.60;99.90;;;;;;4191420;28;20614;-77
2021/12/14 08:43:35;;;;;;;2.72;2.15;;;19.70;99.90;;;;;;4186588;28;20732;-77
2021/12/14 08:45:41;;;;;;;4.22;2.22;;;19.80;99.90;;;;;;4187476;28;20268;-76
2021/12/14 08:47:43;;;;;;;2.35;2.03;;;19.90;99.90;;;;;;4190497;28;20211;-77
2021/12/14 08:49:46;;;;;;;3.33;2.50;;;19.90;99.90;;;;;;4188900;28;20215;-74
2021/12/14 08:51:50;;;;;;;2.33;2.10;;;20.10;99.90;;;;;;4184647;28;20239;-76
2021/12/14 08:53:57;;;;;;;3.47;2.42;;;20.20;99.90;;;;;;4191840;28;20215;-75
2021/12/14 08:56:06;;;;;;;7.75;2.20;;;20.40;99.90;;;;;;4189127;28;20222;-75
2021/12/14 08:58:08;;;;;;;2.80;2.22;;;20.40;99.90;;;;;;4192325;28;20613;-74
2021/12/14 09:00:15;;;;;;;3.15;2.50;;;20.40;99.90;;;;;;4189963;28;20266;-75
2021/12/14 09:02:19;;;;;;;4.78;2.42;;;20.40;99.90;;;;;;4190857;28;20211;-75
2021/12/14 09:04:25;;;;;;;3.47;2.30;;;20.50;99.90;;;;;;4189768;28;20280;-77
2021/12/14 09:06:32;;;;;;;3.55;2.47;;;20.60;99.90;;;;;;4189850;28;20231;-76
2021/12/14 09:08:35;;;;;;;2.60;2.40;;;20.70;99.90;;;;;;4191064;28;20254;-76
2021/12/14 09:10:39;;;;;;;2.67;2.42;;;20.80;99.90;;;;;;4193099;28;20340;-77
2021/12/14 09:12:46;;;;;;;2.50;2.17;;;20.80;99.90;;;;;;4187938;28;20242;-77
2021/12/14 09:14:49;;;;;;;2.65;2.10;;;20.80;99.90;;;;;;4187471;28;20276;-77
2021/12/14 09:16:54;;;;;;;4.13;2.80;;;20.90;99.90;;;;;;4188448;28;20215;-77
2021/12/14 09:19:02;;;;;;;3.08;2.28;;;20.90;99.90;;;;;;4191001;28;20260;-78
2021/12/14 09:21:08;;;;;;;2.78;2.40;;;21.00;99.90;;;;;;4189059;28;20606;-77
2021/12/14 09:23:15;;;;;;;2.40;2.17;;;21.00;99.90;;;;;;4187020;28;20254;-76
2021/12/14 09:25:24;;;;;;;3.88;2.95;;;21.10;99.90;;;;;;4189666;28;20214;-74
2021/12/14 09:27:30;;;;;;;2.88;2.25;;;21.10;99.90;;;;;;4194597;28;20222;-75
2021/12/14 09:29:34;;;;;;;2.47;2.28;;;21.10;99.90;;;;;;4194869;28;20223;-74
2021/12/14 09:31:40;;;;;;;3.15;2.00;;;21.10;99.90;;;;;;4195085;28;20238;-74
2021/12/14 09:33:42;;;;;;;2.53;2.20;;;21.10;99.90;;;;;;4194539;28;20235;-74
2021/12/14 09:35:47;;;;;;;3.00;2.20;;;21.10;99.90;;;;;;4192877;28;20641;-75
2021/12/14 09:37:52;;;;;;;2.42;2.10;;;21.20;99.90;;;;;;4194102;28;20615;-76
2021/12/14 09:39:58;;;;;;;2.60;2.40;;;21.20;99.90;;;;;;4193523;28;20268;-76
2021/12/14 09:42:06;;;;;;;3.08;2.83;;;21.30;99.90;;;;;;4194441;28;20207;-76
2021/12/14 09:44:12;;;;;;;3.55;2.85;;;21.30;99.90;;;;;;4192682;28;20222;-76
2021/12/14 09:46:17;;;;;;;3.35;2.50;;;21.30;99.90;;;;;;4189917;28;20219;-76
2021/12/14 09:48:23;;;;;;;2.88;2.20;;;21.30;99.90;;;;;;4186604;28;20265;-76
2021/12/14 09:50:29;;;;;;;3.30;2.03;;;21.30;99.90;;;;;;4191599;28;20219;-76
2021/12/14 09:52:36;;;;;;;3.72;2.13;;;21.30;99.90;;;;;;4190582;28;20304;-74
2021/12/14 09:54:40;;;;;;;2.30;2.10;;;21.40;99.90;;;;;;4189466;28;20631;-74
2021/12/14 09:56:47;;;;;;;1.92;1.75;;;21.40;99.90;;;;;;4191528;28;20219;-71
2021/12/14 09:58:52;;;;;;;2.92;2.38;;;21.50;99.90;;;;;;4189403;28;20226;-76
2021/12/14 10:00:59;;;;;;;2.17;1.95;;;21.50;99.90;;;;;;4191648;28;20211;-77
2021/12/14 10:03:04;;;;;;;5.75;2.75;;;21.50;99.90;;;;;;4193229;28;20257;-76
2021/12/14 10:05:11;;;;;;;4.35;2.15;;;21.50;99.90;;;;;;4194391;28;20257;-76
2021/12/14 10:07:14;;;;;;;2.72;2.20;;;21.50;99.90;;;;;;4192146;28;20230;-75
2021/12/14 10:09:21;;;;;;;3.08;2.45;;;21.50;99.90;;;;;;4193365;28;20223;-77
2021/12/14 10:11:36;;;;;;;3.35;2.10;;;21.60;99.90;;;;;;4191241;28;20223;-76
2021/12/14 10:13:43;;;;;;;2.85;2.40;;;21.60;99.90;;;;;;4194555;28;20729;-78
2021/12/14 10:15:49;;;;;;;4.00;2.67;;;21.70;99.90;;;;;;4188658;28;20223;-78
2021/12/14 10:17:54;;;;;;;4.30;2.72;;;21.60;99.90;;;;;;4191859;28;20664;-75
2021/12/14 10:19:57;;;;;;;4.25;2.58;;;21.60;99.90;;;;;;4191651;28;20708;-75
2021/12/14 10:22:04;;;;;;;3.10;2.65;;;21.60;99.90;;;;;;4193402;28;20264;-74
2021/12/14 10:24:08;;;;;;;5.85;2.10;;;21.60;99.90;;;;;;4193737;28;20257;-75
2021/12/14 10:26:12;;;;;;;4.63;2.45;;;21.70;99.90;;;;;;4194729;28;20215;-76
2021/12/14 10:28:16;;;;;;;4.93;2.20;;;21.80;99.90;;;;;;4191462;28;20251;-76
2021/12/14 10:30:22;;;;;;;7.20;2.33;;;21.90;99.90;;;;;;4192515;28;20239;-76
2021/12/14 10:32:29;;;;;;;2.33;2.10;;;22.00;99.90;;;;;;4194298;28;20231;-76
2021/12/14 10:34:35;;;;;;;2.72;2.35;;;22.00;99.90;;;;;;4194678;28;20219;-74
2021/12/14 10:36:42;;;;;;;2.70;2.10;;;21.90;99.90;;;;;;4191717;28;20273;-75
2021/12/14 10:39:05;;;;;;;3.05;2.72;;;21.90;99.90;;;;;;4189536;28;20265;-76
2021/12/14 10:43:35;;;;;;;6.25;2.50;;;21.90;99.90;;;;;;4191540;28;20199;-76
2021/12/14 10:45:37;;;;;;;3.28;2.08;;;21.90;99.90;;;;;;4194375;28;20215;-76
2021/12/14 10:47:41;;;;;;;5.43;2.40;;;22.00;99.90;;;;;;4192639;28;20211;-75
2021/12/14 10:49:45;;;;;;;2.30;2.10;;;22.00;99.90;;;;;;4190940;28;20276;-75
2021/12/14 10:51:55;;;;;;;3.67;2.75;;;22.00;99.90;;;;;;4190441;28;20231;-76
2021/12/14 10:53:59;;;;;;;3.38;2.30;;;22.00;99.90;;;;;;4191124;28;20218;-76
2021/12/14 10:56:18;;;;;;;4.30;2.50;;;22.00;99.90;;;;;;4190480;28;20257;-76
2021/12/14 10:58:24;;;;;;;2.55;2.30;;;22.00;99.90;;;;;;4189998;28;20264;-77
2021/12/14 11:00:32;;;;;;;2.28;2.03;;;22.00;99.90;;;;;;4190603;28;20222;-76
2021/12/14 11:02:40;;;;;;;4.15;2.55;;;22.00;99.90;;;;;;4195249;28;20214;-76
2021/12/14 11:04:53;;;;;;;4.68;2.92;;;22.10;99.90;;;;;;4190043;28;20219;-75
2021/12/14 11:06:58;;;;;;;3.13;2.80;;;22.20;99.90;;;;;;4187391;28;20726;-80
2021/12/14 11:11:29;;;;;;;4.72;2.70;;;22.10;99.90;;;;;;4186372;28;20277;-79
2021/12/14 11:13:41;;;;;;;2.95;2.20;;;22.00;99.90;;;;;;4190414;28;20288;-80
2021/12/14 11:15:49;;;;;;;3.20;2.30;;;21.90;99.90;;;;;;4185632;28;20220;-81
2021/12/14 11:18:11;;;;;;;5.20;2.88;;;22.00;99.90;;;;;;4194442;28;20612;-81
2021/12/14 11:20:19;;;;;;;3.63;2.60;;;21.90;99.90;;;;;;4188838;28;20203;-81